sensor_id;sensor_type;location;lat;lon;timestamp;P1;durP1;ratioP1;P2;durP2;ratioP2
36379;SDS011;22411;53.016;18.632;2022-11-20T00:01:54;48.80;;;25.20;;
36379;SDS011;22411;53.016;18.632;2022-11-20T00:04:20;36.50;;;20.87;;
36379;SDS011;22411;53.016;18.632;2022-11-20T00:06:46;38.30;;;19.43;;
36379;SDS011;22411;53.016;18.632;2022-11-20T00:09:12;35.00;;;19.10;;
36379;SDS011;22411;53.016;18.632;2022-11-20T00:11:38;45.30;;;22.10;;
36379;SDS011;22411;53.016;18.632;2022-11-20T00:14:04;41.00;;;21.33;;
36379;SDS011;22411;53.016;18.632;2022-11-20T00:16:31;69.57;;;31.73;;
36379;SDS011;22411;53.016;18.632;2022-11-20T00:18:58;41.20;;;22.03;;
36379;SDS011;22411;53.016;18.632;2022-11-20T00:21:26;33.67;;;18.07;;
36379;SDS011;22411;53.016;18.632;2022-11-20T00:23:54;39.37;;;22.33;;
36379;SDS011;22411;53.016;18.632;2022-11-20T00:26:21;33.63;;;21.33;;
36379;SDS011;22411;53.016;18.632;2022-11-20T00:28:50;44.83;;;24.13;;
36379;SDS011;22411;53.016;18.632;2022-11-20T00:31:18;29.77;;;18.73;;
36379;SDS011;22411;53.016;18.632;2022-11-20T00:33:44;44.70;;;21.27;;
36379;SDS011;22411;53.016;18.632;2022-11-20T00:36:15;38.27;;;21.67;;
36379;SDS011;22411;53.016;18.632;2022-11-20T00:38:43;37.10;;;21.37;;
36379;SDS011;22411;53.016;18.632;2022-11-20T00:41:11;37.43;;;20.87;;
36379;SDS011;22411;53.016;18.632;2022-11-20T00:43:38;40.20;;;23.20;;
36379;SDS011;22411;53.016;18.632;2022-11-20T00:46:06;36.77;;;19.87;;
36379;SDS011;22411;53.016;18.632;2022-11-20T00:48:33;35.97;;;20.53;;
36379;SDS011;22411;53.016;18.632;2022-11-20T00:51:00;39.13;;;21.30;;
36379;SDS011;22411;53.016;18.632;2022-11-20T00:53:26;43.50;;;23.30;;
36379;SDS011;22411;53.016;18.632;2022-11-20T00:55:53;37.90;;;20.23;;
36379;SDS011;22411;53.016;18.632;2022-11-20T00:58:21;40.50;;;21.87;;
36379;SDS011;22411;53.016;18.632;2022-11-20T01:00:48;45.30;;;24.53;;
36379;SDS011;22411;53.016;18.632;2022-11-20T01:03:15;46.23;;;24.83;;
36379;SDS011;22411;53.016;18.632;2022-11-20T01:05:42;44.67;;;23.37;;
36379;SDS011;22411;53.016;18.632;2022-11-20T01:08:09;42.03;;;22.30;;
36379;SDS011;22411;53.016;18.632;2022-11-20T01:10:35;38.70;;;21.77;;
36379;SDS011;22411;53.016;18.632;2022-11-20T01:13:01;39.27;;;22.50;;
36379;SDS011;22411;53.016;18.632;2022-11-20T01:15:45;33.27;;;21.20;;
36379;SDS011;22411;53.016;18.632;2022-11-20T01:18:11;36.13;;;21.63;;
36379;SDS011;22411;53.016;18.632;2022-11-20T01:20:37;40.43;;;21.93;;
36379;SDS011;22411;53.016;18.632;2022-11-20T01:23:03;35.83;;;20.83;;
36379;SDS011;22411;53.016;18.632;2022-11-20T01:25:30;35.67;;;20.40;;
36379;SDS011;22411;53.016;18.632;2022-11-20T01:27:55;39.60;;;21.60;;
36379;SDS011;22411;53.016;18.632;2022-11-20T01:30:21;39.27;;;22.50;;
36379;SDS011;22411;53.016;18.632;2022-11-20T01:32:47;36.93;;;20.23;;
36379;SDS011;22411;53.016;18.632;2022-11-20T01:35:13;34.13;;;17.67;;
36379;SDS011;22411;53.016;18.632;2022-11-20T01:37:40;36.00;;;19.73;;
36379;SDS011;22411;53.016;18.632;2022-11-20T01:40:06;34.17;;;19.80;;
36379;SDS011;22411;53.016;18.632;2022-11-20T01:42:32;34.13;;;18.77;;
36379;SDS011;22411;53.016;18.632;2022-11-20T01:48:22;36.27;;;20.10;;
36379;SDS011;22411;53.016;18.632;2022-11-20T01:50:51;44.00;;;21.30;;
36379;SDS011;22411;53.016;18.632;2022-11-20T01:53:18;34.63;;;19.63;;
36379;SDS011;22411;53.016;18.632;2022-11-20T01:55:51;38.33;;;20.30;;
36379;SDS011;22411;53.016;18.632;2022-11-20T01:58:21;36.22;;;20.90;;
36379;SDS011;22411;53.016;18.632;2022-11-20T02:00:52;34.87;;;18.80;;
36379;SDS011;22411;53.016;18.632;2022-11-20T02:03:19;34.40;;;19.50;;
36379;SDS011;22411;53.016;18.632;2022-11-20T02:08:30;40.40;;;22.47;;
36379;SDS011;22411;53.016;18.632;2022-11-20T02:10:57;36.17;;;19.47;;
36379;SDS011;22411;53.016;18.632;2022-11-20T02:13:23;35.10;;;19.60;;
36379;SDS011;22411;53.016;18.632;2022-11-20T02:16:09;38.07;;;19.93;;
36379;SDS011;22411;53.016;18.632;2022-11-20T02:18:38;39.63;;;22.90;;
36379;SDS011;22411;53.016;18.632;2022-11-20T02:21:07;34.63;;;19.30;;
36379;SDS011;22411;53.016;18.632;2022-11-20T02:24:25;38.57;;;20.40;;
36379;SDS011;22411;53.016;18.632;2022-11-20T02:26:32;44.47;;;23.60;;
36379;SDS011;22411;53.016;18.632;2022-11-20T02:29:03;40.60;;;21.00;;
36379;SDS011;22411;53.016;18.632;2022-11-20T02:31:33;43.23;;;22.57;;
36379;SDS011;22411;53.016;18.632;2022-11-20T02:34:01;39.40;;;22.37;;
36379;SDS011;22411;53.016;18.632;2022-11-20T02:36:27;40.73;;;21.93;;
36379;SDS011;22411;53.016;18.632;2022-11-20T02:38:56;41.27;;;22.83;;
36379;SDS011;22411;53.016;18.632;2022-11-20T02:41:22;43.40;;;21.80;;
36379;SDS011;22411;53.016;18.632;2022-11-20T02:43:56;39.77;;;20.77;;
36379;SDS011;22411;53.016;18.632;2022-11-20T02:46:22;41.73;;;22.67;;
36379;SDS011;22411;53.016;18.632;2022-11-20T02:48:48;43.70;;;22.27;;
36379;SDS011;22411;53.016;18.632;2022-11-20T02:51:14;40.30;;;23.33;;
36379;SDS011;22411;53.016;18.632;2022-11-20T02:53:40;37.20;;;21.30;;
36379;SDS011;22411;53.016;18.632;2022-11-20T02:56:06;38.83;;;22.90;;
36379;SDS011;22411;53.016;18.632;2022-11-20T02:58:32;43.53;;;22.33;;
36379;SDS011;22411;53.016;18.632;2022-11-20T03:00:58;42.60;;;22.87;;
36379;SDS011;22411;53.016;18.632;2022-11-20T03:03:24;43.40;;;23.57;;
36379;SDS011;22411;53.016;18.632;2022-11-20T03:05:50;38.40;;;22.40;;
36379;SDS011;22411;53.016;18.632;2022-11-20T03:08:16;45.67;;;23.23;;
36379;SDS011;22411;53.016;18.632;2022-11-20T03:10:42;39.30;;;22.27;;
36379;SDS011;22411;53.016;18.632;2022-11-20T03:13:08;41.57;;;20.37;;
36379;SDS011;22411;53.016;18.632;2022-11-20T03:15:35;36.97;;;21.77;;
36379;SDS011;22411;53.016;18.632;2022-11-20T03:18:02;41.43;;;22.27;;
36379;SDS011;22411;53.016;18.632;2022-11-20T03:20:29;42.93;;;23.13;;
36379;SDS011;22411;53.016;18.632;2022-11-20T03:22:55;44.30;;;22.17;;
36379;SDS011;22411;53.016;18.632;2022-11-20T03:25:21;42.63;;;22.97;;
36379;SDS011;22411;53.016;18.632;2022-11-20T03:27:47;42.70;;;23.33;;
36379;SDS011;22411;53.016;18.632;2022-11-20T03:30:13;38.73;;;22.57;;
36379;SDS011;22411;53.016;18.632;2022-11-20T03:32:40;45.80;;;22.43;;
36379;SDS011;22411;53.016;18.632;2022-11-20T03:35:06;39.03;;;22.00;;
36379;SDS011;22411;53.016;18.632;2022-11-20T03:37:32;39.70;;;21.30;;
36379;SDS011;22411;53.016;18.632;2022-11-20T03:39:58;42.13;;;23.03;;
36379;SDS011;22411;53.016;18.632;2022-11-20T03:42:24;40.63;;;21.87;;
36379;SDS011;22411;53.016;18.632;2022-11-20T03:45:09;41.27;;;21.60;;
36379;SDS011;22411;53.016;18.632;2022-11-20T03:47:35;43.67;;;22.43;;
36379;SDS011;22411;53.016;18.632;2022-11-20T03:50:01;40.37;;;22.00;;
36379;SDS011;22411;53.016;18.632;2022-11-20T03:52:28;40.27;;;21.93;;
36379;SDS011;22411;53.016;18.632;2022-11-20T03:54:55;35.37;;;19.90;;
36379;SDS011;22411;53.016;18.632;2022-11-20T03:57:20;38.73;;;22.50;;
36379;SDS011;22411;53.016;18.632;2022-11-20T03:59:47;44.70;;;23.03;;
36379;SDS011;22411;53.016;18.632;2022-11-20T04:02:12;40.60;;;22.87;;
36379;SDS011;22411;53.016;18.632;2022-11-20T04:04:38;42.33;;;22.57;;
36379;SDS011;22411;53.016;18.632;2022-11-20T04:07:04;42.27;;;22.17;;
36379;SDS011;22411;53.016;18.632;2022-11-20T04:09:30;43.40;;;22.70;;
36379;SDS011;22411;53.016;18.632;2022-11-20T04:11:56;43.10;;;22.87;;
36379;SDS011;22411;53.016;18.632;2022-11-20T04:14:22;39.20;;;22.50;;
36379;SDS011;22411;53.016;18.632;2022-11-20T04:16:48;38.30;;;22.63;;
36379;SDS011;22411;53.016;18.632;2022-11-20T04:19:15;43.33;;;23.50;;
36379;SDS011;22411;53.016;18.632;2022-11-20T04:21:42;40.50;;;22.23;;
36379;SDS011;22411;53.016;18.632;2022-11-20T04:24:09;45.23;;;23.23;;
36379;SDS011;22411;53.016;18.632;2022-11-20T04:26:38;39.87;;;21.77;;
36379;SDS011;22411;53.016;18.632;2022-11-20T04:29:05;46.67;;;24.17;;
36379;SDS011;22411;53.016;18.632;2022-11-20T04:31:32;48.10;;;24.57;;
36379;SDS011;22411;53.016;18.632;2022-11-20T04:34:00;41.83;;;22.70;;
36379;SDS011;22411;53.016;18.632;2022-11-20T04:36:31;42.45;;;22.92;;
36379;SDS011;22411;53.016;18.632;2022-11-20T04:38:58;41.70;;;23.50;;
36379;SDS011;22411;53.016;18.632;2022-11-20T04:41:27;38.97;;;21.27;;
36379;SDS011;22411;53.016;18.632;2022-11-20T04:43:55;40.23;;;21.47;;
36379;SDS011;22411;53.016;18.632;2022-11-20T04:46:25;47.07;;;23.37;;
36379;SDS011;22411;53.016;18.632;2022-11-20T04:48:52;42.07;;;23.27;;
36379;SDS011;22411;53.016;18.632;2022-11-20T04:51:18;42.70;;;25.03;;
36379;SDS011;22411;53.016;18.632;2022-11-20T04:53:44;41.03;;;22.30;;
36379;SDS011;22411;53.016;18.632;2022-11-20T04:56:11;46.43;;;22.87;;
36379;SDS011;22411;53.016;18.632;2022-11-20T04:58:38;43.27;;;24.17;;
36379;SDS011;22411;53.016;18.632;2022-11-20T05:03:42;41.13;;;21.67;;
36379;SDS011;22411;53.016;18.632;2022-11-20T05:06:10;42.00;;;23.07;;
36379;SDS011;22411;53.016;18.632;2022-11-20T05:08:37;39.97;;;22.60;;
36379;SDS011;22411;53.016;18.632;2022-11-20T05:11:05;44.57;;;23.37;;
36379;SDS011;22411;53.016;18.632;2022-11-20T05:13:36;41.23;;;22.77;;
36379;SDS011;22411;53.016;18.632;2022-11-20T05:16:04;41.57;;;23.17;;
36379;SDS011;22411;53.016;18.632;2022-11-20T05:18:33;45.20;;;24.07;;
36379;SDS011;22411;53.016;18.632;2022-11-20T05:20:59;41.93;;;23.03;;
36379;SDS011;22411;53.016;18.632;2022-11-20T05:23:26;41.40;;;23.03;;
36379;SDS011;22411;53.016;18.632;2022-11-20T05:25:55;43.23;;;23.07;;
36379;SDS011;22411;53.016;18.632;2022-11-20T05:28:23;39.22;;;23.05;;
36379;SDS011;22411;53.016;18.632;2022-11-20T05:30:49;39.90;;;22.37;;
36379;SDS011;22411;53.016;18.632;2022-11-20T05:33:16;44.07;;;25.30;;
36379;SDS011;22411;53.016;18.632;2022-11-20T05:35:43;46.07;;;24.37;;
36379;SDS011;22411;53.016;18.632;2022-11-20T05:38:09;43.67;;;24.07;;
36379;SDS011;22411;53.016;18.632;2022-11-20T05:40:36;49.10;;;24.53;;
36379;SDS011;22411;53.016;18.632;2022-11-20T05:43:03;40.20;;;23.60;;
36379;SDS011;22411;53.016;18.632;2022-11-20T05:45:29;44.97;;;24.97;;
36379;SDS011;22411;53.016;18.632;2022-11-20T05:47:59;42.10;;;22.87;;
36379;SDS011;22411;53.016;18.632;2022-11-20T05:50:26;41.67;;;24.07;;
36379;SDS011;22411;53.016;18.632;2022-11-20T05:52:53;43.27;;;22.97;;
36379;SDS011;22411;53.016;18.632;2022-11-20T05:55:20;43.67;;;24.10;;
36379;SDS011;22411;53.016;18.632;2022-11-20T05:57:47;45.03;;;23.00;;
36379;SDS011;22411;53.016;18.632;2022-11-20T06:00:13;45.67;;;23.20;;
36379;SDS011;22411;53.016;18.632;2022-11-20T06:02:40;43.17;;;24.20;;
36379;SDS011;22411;53.016;18.632;2022-11-20T06:05:06;44.40;;;23.97;;
36379;SDS011;22411;53.016;18.632;2022-11-20T06:07:33;41.20;;;22.00;;
36379;SDS011;22411;53.016;18.632;2022-11-20T06:09:59;43.17;;;22.47;;
36379;SDS011;22411;53.016;18.632;2022-11-20T06:12:25;47.03;;;25.37;;
36379;SDS011;22411;53.016;18.632;2022-11-20T06:14:51;42.83;;;23.90;;
36379;SDS011;22411;53.016;18.632;2022-11-20T06:17:17;43.30;;;23.63;;
36379;SDS011;22411;53.016;18.632;2022-11-20T06:19:42;40.90;;;23.00;;
36379;SDS011;22411;53.016;18.632;2022-11-20T06:22:09;43.67;;;22.63;;
36379;SDS011;22411;53.016;18.632;2022-11-20T06:24:34;41.90;;;25.00;;
36379;SDS011;22411;53.016;18.632;2022-11-20T06:27:00;43.17;;;23.23;;
36379;SDS011;22411;53.016;18.632;2022-11-20T06:29:26;40.27;;;22.93;;
36379;SDS011;22411;53.016;18.632;2022-11-20T06:31:52;46.00;;;22.93;;
36379;SDS011;22411;53.016;18.632;2022-11-20T06:34:18;42.40;;;23.73;;
36379;SDS011;22411;53.016;18.632;2022-11-20T06:36:44;43.07;;;24.57;;
36379;SDS011;22411;53.016;18.632;2022-11-20T06:39:10;41.83;;;22.93;;
36379;SDS011;22411;53.016;18.632;2022-11-20T06:41:37;42.97;;;22.83;;
36379;SDS011;22411;53.016;18.632;2022-11-20T06:44:03;46.37;;;23.13;;
36379;SDS011;22411;53.016;18.632;2022-11-20T06:46:31;40.90;;;22.37;;
36379;SDS011;22411;53.016;18.632;2022-11-20T06:49:07;45.27;;;26.40;;
36379;SDS011;22411;53.016;18.632;2022-11-20T06:51:34;38.77;;;22.03;;
36379;SDS011;22411;53.016;18.632;2022-11-20T06:53:59;45.77;;;23.67;;
36379;SDS011;22411;53.016;18.632;2022-11-20T06:56:26;49.23;;;25.80;;
36379;SDS011;22411;53.016;18.632;2022-11-20T06:58:53;44.27;;;25.60;;
36379;SDS011;22411;53.016;18.632;2022-11-20T07:01:19;43.17;;;24.80;;
36379;SDS011;22411;53.016;18.632;2022-11-20T07:03:45;41.57;;;24.43;;
36379;SDS011;22411;53.016;18.632;2022-11-20T07:06:14;41.63;;;21.53;;
36379;SDS011;22411;53.016;18.632;2022-11-20T07:08:39;48.80;;;24.77;;
36379;SDS011;22411;53.016;18.632;2022-11-20T07:11:06;47.07;;;25.43;;
36379;SDS011;22411;53.016;18.632;2022-11-20T07:13:32;44.57;;;25.50;;
36379;SDS011;22411;53.016;18.632;2022-11-20T07:15:59;45.53;;;25.87;;
36379;SDS011;22411;53.016;18.632;2022-11-20T07:18:29;52.47;;;28.65;;
36379;SDS011;22411;53.016;18.632;2022-11-20T07:20:56;48.60;;;25.90;;
36379;SDS011;22411;53.016;18.632;2022-11-20T07:23:24;42.40;;;23.27;;
36379;SDS011;22411;53.016;18.632;2022-11-20T07:25:50;39.43;;;22.70;;
36379;SDS011;22411;53.016;18.632;2022-11-20T07:28:16;40.67;;;21.57;;
36379;SDS011;22411;53.016;18.632;2022-11-20T07:30:42;41.27;;;25.20;;
36379;SDS011;22411;53.016;18.632;2022-11-20T07:33:08;47.20;;;25.77;;
36379;SDS011;22411;53.016;18.632;2022-11-20T07:35:34;42.70;;;23.37;;
36379;SDS011;22411;53.016;18.632;2022-11-20T07:38:01;42.63;;;23.00;;
36379;SDS011;22411;53.016;18.632;2022-11-20T07:40:28;48.67;;;24.23;;
36379;SDS011;22411;53.016;18.632;2022-11-20T07:42:54;44.70;;;22.53;;
36379;SDS011;22411;53.016;18.632;2022-11-20T07:45:21;44.30;;;22.77;;
36379;SDS011;22411;53.016;18.632;2022-11-20T07:47:49;57.37;;;34.33;;
36379;SDS011;22411;53.016;18.632;2022-11-20T07:50:15;46.23;;;26.10;;
36379;SDS011;22411;53.016;18.632;2022-11-20T07:52:42;64.67;;;36.77;;
36379;SDS011;22411;53.016;18.632;2022-11-20T07:55:08;40.67;;;25.33;;
36379;SDS011;22411;53.016;18.632;2022-11-20T07:57:35;42.10;;;24.30;;
36379;SDS011;22411;53.016;18.632;2022-11-20T08:00:01;47.23;;;25.10;;
36379;SDS011;22411;53.016;18.632;2022-11-20T08:02:28;39.97;;;23.83;;
36379;SDS011;22411;53.016;18.632;2022-11-20T08:04:54;42.70;;;24.80;;
36379;SDS011;22411;53.016;18.632;2022-11-20T08:07:20;43.10;;;21.77;;
36379;SDS011;22411;53.016;18.632;2022-11-20T08:09:46;42.93;;;23.67;;
36379;SDS011;22411;53.016;18.632;2022-11-20T08:12:19;47.10;;;25.17;;
36379;SDS011;22411;53.016;18.632;2022-11-20T08:15:05;44.50;;;23.57;;
36379;SDS011;22411;53.016;18.632;2022-11-20T08:17:31;53.70;;;30.40;;
36379;SDS011;22411;53.016;18.632;2022-11-20T08:19:57;47.03;;;28.90;;
36379;SDS011;22411;53.016;18.632;2022-11-20T08:22:23;45.67;;;26.10;;
36379;SDS011;22411;53.016;18.632;2022-11-20T08:24:50;46.27;;;25.33;;
36379;SDS011;22411;53.016;18.632;2022-11-20T08:27:16;43.13;;;24.93;;
36379;SDS011;22411;53.016;18.632;2022-11-20T08:29:42;48.40;;;25.80;;
36379;SDS011;22411;53.016;18.632;2022-11-20T08:32:08;47.70;;;28.13;;
36379;SDS011;22411;53.016;18.632;2022-11-20T08:34:37;48.00;;;29.30;;
36379;SDS011;22411;53.016;18.632;2022-11-20T08:37:03;44.57;;;25.63;;
36379;SDS011;22411;53.016;18.632;2022-11-20T08:39:30;41.83;;;24.93;;
36379;SDS011;22411;53.016;18.632;2022-11-20T08:41:55;44.57;;;26.57;;
36379;SDS011;22411;53.016;18.632;2022-11-20T08:44:23;47.40;;;27.33;;
36379;SDS011;22411;53.016;18.632;2022-11-20T08:46:49;49.87;;;29.10;;
36379;SDS011;22411;53.016;18.632;2022-11-20T08:49:15;47.17;;;26.23;;
36379;SDS011;22411;53.016;18.632;2022-11-20T08:51:42;49.20;;;27.13;;
36379;SDS011;22411;53.016;18.632;2022-11-20T08:54:08;43.53;;;27.47;;
36379;SDS011;22411;53.016;18.632;2022-11-20T08:56:34;45.63;;;28.00;;
36379;SDS011;22411;53.016;18.632;2022-11-20T08:59:01;45.87;;;26.03;;
36379;SDS011;22411;53.016;18.632;2022-11-20T09:01:27;46.47;;;27.73;;
36379;SDS011;22411;53.016;18.632;2022-11-20T09:03:55;45.93;;;26.30;;
36379;SDS011;22411;53.016;18.632;2022-11-20T09:06:22;45.67;;;26.93;;
36379;SDS011;22411;53.016;18.632;2022-11-20T09:08:51;55.90;;;31.20;;
36379;SDS011;22411;53.016;18.632;2022-11-20T09:11:22;50.53;;;29.07;;
36379;SDS011;22411;53.016;18.632;2022-11-20T09:13:48;55.50;;;30.40;;
36379;SDS011;22411;53.016;18.632;2022-11-20T09:16:14;59.90;;;33.73;;
36379;SDS011;22411;53.016;18.632;2022-11-20T09:18:41;66.13;;;36.20;;
36379;SDS011;22411;53.016;18.632;2022-11-20T09:21:10;52.00;;;29.63;;
36379;SDS011;22411;53.016;18.632;2022-11-20T09:23:39;53.27;;;29.53;;
36379;SDS011;22411;53.016;18.632;2022-11-20T09:26:06;53.50;;;29.93;;
36379;SDS011;22411;53.016;18.632;2022-11-20T09:28:35;50.50;;;29.10;;
36379;SDS011;22411;53.016;18.632;2022-11-20T09:31:04;48.17;;;28.20;;
36379;SDS011;22411;53.016;18.632;2022-11-20T09:33:32;49.10;;;27.67;;
36379;SDS011;22411;53.016;18.632;2022-11-20T09:35:59;49.33;;;28.47;;
36379;SDS011;22411;53.016;18.632;2022-11-20T09:38:26;49.10;;;28.87;;
36379;SDS011;22411;53.016;18.632;2022-11-20T09:41:03;52.27;;;29.23;;
36379;SDS011;22411;53.016;18.632;2022-11-20T09:43:54;51.73;;;29.90;;
36379;SDS011;22411;53.016;18.632;2022-11-20T09:46:35;49.53;;;29.23;;
36379;SDS011;22411;53.016;18.632;2022-11-20T09:54:51;57.73;;;34.00;;
36379;SDS011;22411;53.016;18.632;2022-11-20T09:57:19;49.77;;;31.67;;
36379;SDS011;22411;53.016;18.632;2022-11-20T09:59:55;70.27;;;43.23;;
36379;SDS011;22411;53.016;18.632;2022-11-20T10:02:30;68.00;;;42.67;;
36379;SDS011;22411;53.016;18.632;2022-11-20T10:05:05;50.43;;;27.03;;
36379;SDS011;22411;53.016;18.632;2022-11-20T10:07:53;62.87;;;36.47;;
36379;SDS011;22411;53.016;18.632;2022-11-20T10:11:00;59.90;;;33.57;;
36379;SDS011;22411;53.016;18.632;2022-11-20T10:13:39;59.17;;;32.23;;
36379;SDS011;22411;53.016;18.632;2022-11-20T10:16:38;46.55;;;26.58;;
36379;SDS011;22411;53.016;18.632;2022-11-20T10:19:36;62.57;;;41.43;;
36379;SDS011;22411;53.016;18.632;2022-11-20T10:22:34;65.93;;;40.67;;
36379;SDS011;22411;53.016;18.632;2022-11-20T10:25:08;95.77;;;57.87;;
36379;SDS011;22411;53.016;18.632;2022-11-20T10:30:45;70.37;;;46.63;;
36379;SDS011;22411;53.016;18.632;2022-11-20T10:33:21;48.13;;;27.47;;
36379;SDS011;22411;53.016;18.632;2022-11-20T10:38:58;49.53;;;29.13;;
36379;SDS011;22411;53.016;18.632;2022-11-20T10:41:30;83.73;;;52.27;;
36379;SDS011;22411;53.016;18.632;2022-11-20T10:44:22;64.00;;;42.23;;
36379;SDS011;22411;53.016;18.632;2022-11-20T10:47:16;44.13;;;28.50;;
36379;SDS011;22411;53.016;18.632;2022-11-20T10:49:46;58.58;;;35.00;;
36379;SDS011;22411;53.016;18.632;2022-11-20T11:00:39;61.63;;;41.30;;
36379;SDS011;22411;53.016;18.632;2022-11-20T11:03:38;74.50;;;51.47;;
36379;SDS011;22411;53.016;18.632;2022-11-20T11:08:28;63.03;;;41.10;;
36379;SDS011;22411;53.016;18.632;2022-11-20T11:11:02;52.40;;;32.77;;
36379;SDS011;22411;53.016;18.632;2022-11-20T11:13:43;49.23;;;30.90;;
36379;SDS011;22411;53.016;18.632;2022-11-20T11:16:48;53.87;;;32.57;;
36379;SDS011;22411;53.016;18.632;2022-11-20T11:19:13;53.00;;;32.93;;
36379;SDS011;22411;53.016;18.632;2022-11-20T11:22:16;42.37;;;24.93;;
36379;SDS011;22411;53.016;18.632;2022-11-20T11:24:52;87.70;;;50.20;;
36379;SDS011;22411;53.016;18.632;2022-11-20T11:27:20;73.30;;;43.13;;
36379;SDS011;22411;53.016;18.632;2022-11-20T11:29:50;86.73;;;63.03;;
36379;SDS011;22411;53.016;18.632;2022-11-20T11:32:33;87.23;;;53.73;;
36379;SDS011;22411;53.016;18.632;2022-11-20T11:35:05;54.30;;;31.75;;
36379;SDS011;22411;53.016;18.632;2022-11-20T11:37:47;51.17;;;28.57;;
36379;SDS011;22411;53.016;18.632;2022-11-20T11:40:17;51.30;;;32.70;;
36379;SDS011;22411;53.016;18.632;2022-11-20T11:42:58;50.60;;;29.40;;
36379;SDS011;22411;53.016;18.632;2022-11-20T11:45:55;45.67;;;27.93;;
36379;SDS011;22411;53.016;18.632;2022-11-20T11:48:29;51.10;;;28.37;;
36379;SDS011;22411;53.016;18.632;2022-11-20T11:50:57;56.87;;;36.47;;
36379;SDS011;22411;53.016;18.632;2022-11-20T11:53:24;52.87;;;32.17;;
36379;SDS011;22411;53.016;18.632;2022-11-20T11:56:12;52.60;;;31.85;;
36379;SDS011;22411;53.016;18.632;2022-11-20T11:58:50;55.43;;;31.43;;
36379;SDS011;22411;53.016;18.632;2022-11-20T12:01:39;47.20;;;28.27;;
36379;SDS011;22411;53.016;18.632;2022-11-20T12:13:04;51.67;;;33.40;;
36379;SDS011;22411;53.016;18.632;2022-11-20T12:15:44;46.77;;;27.23;;
36379;SDS011;22411;53.016;18.632;2022-11-20T12:18:14;48.30;;;27.47;;
36379;SDS011;22411;53.016;18.632;2022-11-20T12:21:35;70.87;;;37.53;;
36379;SDS011;22411;53.016;18.632;2022-11-20T12:29:43;96.23;;;49.37;;
36379;SDS011;22411;53.016;18.632;2022-11-20T12:37:48;122.00;;;59.33;;
36379;SDS011;22411;53.016;18.632;2022-11-20T12:40:49;223.17;;;111.83;;
36379;SDS011;22411;53.016;18.632;2022-11-20T12:43:24;87.60;;;47.43;;
36379;SDS011;22411;53.016;18.632;2022-11-20T12:57:29;58.50;;;37.77;;
36379;SDS011;22411;53.016;18.632;2022-11-20T13:00:19;60.10;;;36.03;;
36379;SDS011;22411;53.016;18.632;2022-11-20T13:05:47;121.20;;;73.80;;
36379;SDS011;22411;53.016;18.632;2022-11-20T13:08:37;74.83;;;48.67;;
36379;SDS011;22411;53.016;18.632;2022-11-20T13:19:17;53.60;;;34.60;;
36379;SDS011;22411;53.016;18.632;2022-11-20T13:21:46;59.83;;;34.43;;
36379;SDS011;22411;53.016;18.632;2022-11-20T13:27:02;55.03;;;30.13;;
36379;SDS011;22411;53.016;18.632;2022-11-20T13:29:43;89.07;;;49.03;;
36379;SDS011;22411;53.016;18.632;2022-11-20T13:32:17;71.77;;;43.23;;
36379;SDS011;22411;53.016;18.632;2022-11-20T13:34:55;57.30;;;30.80;;
36379;SDS011;22411;53.016;18.632;2022-11-20T13:37:28;65.40;;;39.63;;
36379;SDS011;22411;53.016;18.632;2022-11-20T13:40:11;51.43;;;29.83;;
36379;SDS011;22411;53.016;18.632;2022-11-20T13:42:40;59.30;;;37.80;;
36379;SDS011;22411;53.016;18.632;2022-11-20T13:45:21;62.43;;;38.27;;
36379;SDS011;22411;53.016;18.632;2022-11-20T13:48:01;43.70;;;28.63;;
36379;SDS011;22411;53.016;18.632;2022-11-20T14:02:11;49.08;;;30.35;;
36379;SDS011;22411;53.016;18.632;2022-11-20T14:04:43;52.43;;;34.23;;
36379;SDS011;22411;53.016;18.632;2022-11-20T14:07:12;47.03;;;27.03;;
36379;SDS011;22411;53.016;18.632;2022-11-20T14:09:54;71.33;;;40.73;;
36379;SDS011;22411;53.016;18.632;2022-11-20T14:12:31;56.07;;;34.33;;
36379;SDS011;22411;53.016;18.632;2022-11-20T14:15:22;49.53;;;28.83;;
36379;SDS011;22411;53.016;18.632;2022-11-20T14:17:57;56.30;;;29.93;;
36379;SDS011;22411;53.016;18.632;2022-11-20T14:20:36;83.00;;;44.23;;
36379;SDS011;22411;53.016;18.632;2022-11-20T14:23:10;42.93;;;25.87;;
36379;SDS011;22411;53.016;18.632;2022-11-20T14:25:41;47.10;;;24.93;;
36379;SDS011;22411;53.016;18.632;2022-11-20T14:28:18;41.37;;;24.90;;
36379;SDS011;22411;53.016;18.632;2022-11-20T14:30:51;56.80;;;32.33;;
36379;SDS011;22411;53.016;18.632;2022-11-20T14:33:17;68.80;;;37.67;;
36379;SDS011;22411;53.016;18.632;2022-11-20T14:35:49;48.47;;;28.53;;
36379;SDS011;22411;53.016;18.632;2022-11-20T14:38:29;40.43;;;25.13;;
36379;SDS011;22411;53.016;18.632;2022-11-20T14:41:14;34.57;;;21.13;;
36379;SDS011;22411;53.016;18.632;2022-11-20T14:43:54;36.67;;;22.27;;
36379;SDS011;22411;53.016;18.632;2022-11-20T14:46:23;36.60;;;19.67;;
36379;SDS011;22411;53.016;18.632;2022-11-20T14:48:51;38.47;;;21.47;;
36379;SDS011;22411;53.016;18.632;2022-11-20T14:51:25;53.60;;;30.95;;
36379;SDS011;22411;53.016;18.632;2022-11-20T14:54:19;38.27;;;21.67;;
36379;SDS011;22411;53.016;18.632;2022-11-20T14:56:58;79.77;;;46.73;;
36379;SDS011;22411;53.016;18.632;2022-11-20T14:59:27;68.17;;;36.17;;
36379;SDS011;22411;53.016;18.632;2022-11-20T15:04:30;52.00;;;27.53;;
36379;SDS011;22411;53.016;18.632;2022-11-20T15:06:58;53.83;;;26.67;;
36379;SDS011;22411;53.016;18.632;2022-11-20T15:09:25;43.27;;;28.57;;
36379;SDS011;22411;53.016;18.632;2022-11-20T15:11:55;51.33;;;32.60;;
36379;SDS011;22411;53.016;18.632;2022-11-20T15:14:23;45.37;;;25.80;;
36379;SDS011;22411;53.016;18.632;2022-11-20T15:16:51;39.53;;;23.03;;
36379;SDS011;22411;53.016;18.632;2022-11-20T15:19:21;54.13;;;32.87;;
36379;SDS011;22411;53.016;18.632;2022-11-20T15:21:49;37.15;;;20.48;;
36379;SDS011;22411;53.016;18.632;2022-11-20T15:24:15;42.07;;;23.50;;
36379;SDS011;22411;53.016;18.632;2022-11-20T15:26:42;41.67;;;23.90;;
36379;SDS011;22411;53.016;18.632;2022-11-20T15:29:14;53.10;;;32.30;;
36379;SDS011;22411;53.016;18.632;2022-11-20T15:31:44;41.77;;;24.63;;
36379;SDS011;22411;53.016;18.632;2022-11-20T15:34:11;34.93;;;22.40;;
36379;SDS011;22411;53.016;18.632;2022-11-20T15:36:39;47.17;;;26.33;;
36379;SDS011;22411;53.016;18.632;2022-11-20T15:39:05;43.93;;;23.80;;
36379;SDS011;22411;53.016;18.632;2022-11-20T15:41:37;40.47;;;24.83;;
36379;SDS011;22411;53.016;18.632;2022-11-20T15:44:04;38.43;;;22.83;;
36379;SDS011;22411;53.016;18.632;2022-11-20T15:46:31;43.90;;;24.30;;
36379;SDS011;22411;53.016;18.632;2022-11-20T15:49:03;46.63;;;26.93;;
36379;SDS011;22411;53.016;18.632;2022-11-20T15:51:32;51.07;;;25.80;;
36379;SDS011;22411;53.016;18.632;2022-11-20T15:54:00;40.13;;;23.77;;
36379;SDS011;22411;53.016;18.632;2022-11-20T15:56:27;48.00;;;27.40;;
36379;SDS011;22411;53.016;18.632;2022-11-20T15:58:53;39.57;;;23.07;;